createdAt,value
2022-12-25T00:00:41.553Z,100904.87
2022-12-25T00:03:44.632Z,100911.94
2022-12-25T00:06:46.942Z,100920.59
2022-12-25T00:09:49.480Z,100920.50
2022-12-25T00:12:51.971Z,100923.22
2022-12-25T00:15:55.468Z,100931.03
2022-12-25T00:18:59.006Z,100933.44
2022-12-25T00:22:01.688Z,100923.66
2022-12-25T00:25:04.329Z,100928.31
2022-12-25T00:28:06.816Z,100942.94
2022-12-25T00:31:12.774Z,100947.66
2022-12-25T00:34:15.371Z,100948.53
2022-12-25T00:37:17.617Z,100962.87
2022-12-25T00:40:20.395Z,100967.81
2022-12-25T00:43:22.687Z,100964.44
2022-12-25T00:46:25.223Z,100965.66
2022-12-25T00:49:27.682Z,100966.88
2022-12-25T00:52:30.182Z,100973.00
2022-12-25T00:55:32.505Z,100978.69
2022-12-25T00:58:35.830Z,100994.62
2022-12-25T01:01:39.118Z,100991.09
2022-12-25T01:04:41.996Z,100972.81
2022-12-25T01:07:44.192Z,100975.75
2022-12-25T01:10:54.282Z,100973.25
2022-12-25T01:13:56.681Z,100983.41
2022-12-25T01:16:59.222Z,100976.91
2022-12-25T01:20:01.877Z,100980.03
2022-12-25T01:23:04.402Z,100983.50
2022-12-25T01:26:08.810Z,100988.38
2022-12-25T01:29:11.354Z,101001.09
2022-12-25T01:32:13.656Z,100993.22
2022-12-25T01:35:16.394Z,100996.87
2022-12-25T01:38:18.657Z,100996.53
2022-12-25T01:41:24.081Z,100990.56
2022-12-25T01:44:35.347Z,100999.28
2022-12-25T01:47:38.056Z,101011.88
2022-12-25T01:50:45.948Z,100993.47
2022-12-25T01:53:49.190Z,100992.13
2022-12-25T01:56:55.242Z,101000.31
2022-12-25T02:00:00.400Z,100990.84
2022-12-25T02:03:03.791Z,100988.16
2022-12-25T02:06:07.502Z,100993.34
2022-12-25T02:09:10.040Z,100999.09
2022-12-25T02:12:30.802Z,100985.28
2022-12-25T02:15:53.056Z,100991.62
2022-12-25T02:19:38.442Z,100986.56
2022-12-25T02:23:17.900Z,101001.47
2022-12-25T02:26:46.239Z,100998.50
2022-12-25T02:30:08.155Z,100998.97
2022-12-25T02:33:54.921Z,100999.16
2022-12-25T02:37:09.195Z,101008.59
2022-12-25T02:40:30.727Z,101015.75
2022-12-25T02:44:03.123Z,101024.75
2022-12-25T02:47:27.130Z,101020.66
2022-12-25T02:50:48.048Z,101019.00
2022-12-25T02:54:13.871Z,101018.09
2022-12-25T02:57:36.647Z,101021.97
2022-12-25T03:01:06.723Z,101019.56
2022-12-25T03:04:32.681Z,101022.81
2022-12-25T03:07:39.807Z,101035.75
2022-12-25T03:11:04.959Z,101048.09
2022-12-25T03:14:28.109Z,101042.88
2022-12-25T03:17:32.323Z,101049.78
2022-12-25T03:20:53.563Z,101053.97
2022-12-25T03:24:21.631Z,101052.25
2022-12-25T03:27:25.346Z,101045.06
2022-12-25T03:31:00.743Z,101059.94
2022-12-25T03:34:54.832Z,101048.75
2022-12-25T03:38:31.292Z,101055.09
2022-12-25T03:42:02.402Z,101067.00
2022-12-25T03:45:45.000Z,101066.72
2022-12-25T03:49:10.463Z,101073.91
2022-12-25T03:52:34.309Z,101083.72
2022-12-25T03:55:55.610Z,101083.88
2022-12-25T03:59:25.068Z,101083.50
2022-12-25T04:02:46.081Z,101093.44
2022-12-25T04:06:07.233Z,101079.47
2022-12-25T04:09:28.008Z,101087.44
2022-12-25T04:12:48.913Z,101080.38
2022-12-25T04:16:11.206Z,101075.25
2022-12-25T04:19:32.075Z,101070.13
2022-12-25T04:23:06.523Z,101064.78
2022-12-25T04:26:27.552Z,101069.09
2022-12-25T04:29:48.253Z,101077.03
2022-12-25T04:33:09.161Z,101091.16
2022-12-25T04:36:14.157Z,101086.53
2022-12-25T04:39:16.950Z,101083.81
2022-12-25T04:42:19.183Z,101079.38
2022-12-25T04:45:22.592Z,101068.09
2022-12-25T04:48:26.414Z,101070.06
2022-12-25T04:51:28.951Z,101061.97
2022-12-25T04:54:31.156Z,101056.75
2022-12-25T04:57:34.384Z,101074.25
2022-12-25T05:00:37.390Z,101077.78
2022-12-25T05:03:40.726Z,101081.09
2022-12-25T05:06:42.993Z,101093.12
2022-12-25T05:09:45.458Z,101084.56
2022-12-25T05:12:47.604Z,101088.31
2022-12-25T05:15:50.222Z,101096.72
2022-12-25T05:18:52.812Z,101092.69
2022-12-25T05:21:55.465Z,101104.31
2022-12-25T05:24:57.764Z,101093.41
2022-12-25T05:28:00.299Z,101102.59
2022-12-25T05:31:03.168Z,101096.97
2022-12-25T05:34:05.873Z,101101.63
2022-12-25T05:37:08.020Z,101099.28
2022-12-25T05:40:11.065Z,101099.62
2022-12-25T05:43:13.335Z,101107.94
2022-12-25T05:46:16.040Z,101110.81
2022-12-25T05:49:18.345Z,101116.16
2022-12-25T05:52:20.855Z,101119.62
2022-12-25T05:55:23.409Z,101128.44
2022-12-25T05:58:26.078Z,101125.34
2022-12-25T06:01:29.032Z,101128.00
2022-12-25T06:04:31.613Z,101130.81
2022-12-25T06:07:33.856Z,101126.88
2022-12-25T06:10:36.383Z,101119.91
2022-12-25T06:13:38.591Z,101111.06
2022-12-25T06:16:41.773Z,101116.59
2022-12-25T06:19:44.192Z,101119.62
2022-12-25T06:22:46.879Z,101108.13
2022-12-25T06:25:49.253Z,101114.41
2022-12-25T06:28:52.778Z,101113.88
2022-12-25T06:31:57.313Z,101121.22
2022-12-25T06:35:02.268Z,101121.31
2022-12-25T06:38:04.411Z,101127.41
2022-12-25T06:41:10.662Z,101145.50
2022-12-25T06:44:13.677Z,101145.50
2022-12-25T06:47:16.147Z,101149.13
2022-12-25T06:50:18.480Z,101153.72
2022-12-25T06:53:21.020Z,101152.91
2022-12-25T06:56:26.911Z,101148.59
2022-12-25T06:59:29.738Z,101157.47
2022-12-25T07:02:33.489Z,101165.41
2022-12-25T07:05:36.099Z,101169.66
2022-12-25T07:08:38.659Z,101182.87
2022-12-25T07:11:42.279Z,101197.38
2022-12-25T07:14:45.637Z,101200.66
2022-12-25T07:17:48.036Z,101200.50
2022-12-25T07:20:50.123Z,101205.47
2022-12-25T07:23:52.719Z,101214.19
2022-12-25T07:26:54.929Z,101219.81
2022-12-25T07:29:57.455Z,101215.66
2022-12-25T07:32:59.688Z,101218.09
2022-12-25T07:36:02.498Z,101215.69
2022-12-25T07:39:05.416Z,101223.66
2022-12-25T07:42:07.914Z,101224.19
2022-12-25T07:45:10.785Z,101229.87
2022-12-25T07:48:16.690Z,101221.75
2022-12-25T07:51:19.465Z,101226.59
2022-12-25T07:54:22.041Z,101222.63
2022-12-25T07:57:24.307Z,101233.81
2022-12-25T08:00:29.833Z,101243.13
2022-12-25T08:03:33.880Z,101244.13
2022-12-25T08:06:36.300Z,101241.31
2022-12-25T08:09:38.782Z,101244.22
2022-12-25T08:12:40.995Z,101255.31
2022-12-25T08:15:43.552Z,101263.41
2022-12-25T08:18:45.870Z,101263.75
2022-12-25T08:21:48.356Z,101268.47
2022-12-25T08:24:50.509Z,101260.94
2022-12-25T08:27:53.156Z,101255.69
2022-12-25T08:30:55.426Z,101269.28
2022-12-25T08:33:58.997Z,101268.41
2022-12-25T08:37:01.225Z,101271.78
2022-12-25T08:40:04.157Z,101275.75
2022-12-25T08:43:06.425Z,101280.81
2022-12-25T08:46:09.301Z,101278.38
2022-12-25T08:49:11.719Z,101274.34
2022-12-25T08:52:14.184Z,101280.84
2022-12-25T08:55:16.449Z,101277.72
2022-12-25T08:58:18.951Z,101276.97
2022-12-25T09:01:21.234Z,101281.37
2022-12-25T09:04:24.147Z,101280.34
2022-12-25T09:07:26.484Z,101282.69
2022-12-25T09:10:29.057Z,101288.22
2022-12-25T09:13:31.477Z,101278.16
2022-12-25T09:16:33.969Z,101281.03
2022-12-25T09:19:36.165Z,101278.94
2022-12-25T09:22:38.620Z,101275.88
2022-12-25T09:25:40.848Z,101282.16
2022-12-25T09:28:50.260Z,101286.97
2022-12-25T09:31:53.866Z,101284.56
2022-12-25T09:34:56.409Z,101281.94
2022-12-25T09:37:58.580Z,101276.50
2022-12-25T09:41:32.055Z,101275.31
2022-12-25T09:44:39.675Z,101272.34
2022-12-25T09:47:44.541Z,101280.53
2022-12-25T09:50:52.552Z,101276.34
2022-12-25T09:54:06.570Z,101276.31
2022-12-25T09:57:11.077Z,101267.69
2022-12-25T10:00:19.680Z,101276.09
2022-12-25T10:03:34.576Z,101271.56
2022-12-25T10:06:49.916Z,101278.94
2022-12-25T10:09:58.906Z,101271.78
2022-12-25T10:13:35.259Z,101267.87
2022-12-25T10:16:47.032Z,101267.13
2022-12-25T10:19:49.207Z,101257.88
2022-12-25T10:22:57.141Z,101252.75
2022-12-25T10:25:59.348Z,101256.81
2022-12-25T10:29:16.938Z,101252.28
2022-12-25T10:32:19.207Z,101249.34
2022-12-25T10:35:24.362Z,101246.25
2022-12-25T10:38:26.543Z,101252.88
2022-12-25T10:41:39.521Z,101250.78
2022-12-25T10:44:54.414Z,101244.63
2022-12-25T10:48:07.620Z,101233.94
2022-12-25T10:51:10.589Z,101242.19
2022-12-25T10:54:29.910Z,101240.37
2022-12-25T10:57:32.366Z,101240.28
2022-12-25T11:00:34.895Z,101234.88
2022-12-25T11:03:44.205Z,101238.66
2022-12-25T11:06:57.229Z,101237.72
2022-12-25T11:10:05.686Z,101224.94
2022-12-25T11:13:19.126Z,101221.72
2022-12-25T11:16:40.159Z,101220.37
2022-12-25T11:19:52.404Z,101211.38
2022-12-25T11:22:54.887Z,101199.91
2022-12-25T11:26:03.627Z,101216.50
2022-12-25T11:29:36.306Z,101207.69
2022-12-25T11:32:46.495Z,101202.03
2022-12-25T11:35:54.927Z,101200.31
2022-12-25T11:39:01.693Z,101200.66
2022-12-25T11:42:20.935Z,101201.28
2022-12-25T11:45:37.266Z,101199.06
2022-12-25T11:48:45.206Z,101196.41
2022-12-25T11:51:53.059Z,101196.06
2022-12-25T11:55:01.432Z,101200.06
2022-12-25T11:58:18.672Z,101197.69
2022-12-25T12:01:30.303Z,101192.00
2022-12-25T12:04:42.589Z,101184.03
2022-12-25T12:08:00.921Z,101187.75
2022-12-25T12:11:21.715Z,101186.06
2022-12-25T12:14:37.661Z,101177.31
2022-12-25T12:17:40.132Z,101183.09
2022-12-25T12:20:42.289Z,101176.22
2022-12-25T12:24:06.560Z,101185.28
2022-12-25T12:27:14.833Z,101188.47
2022-12-25T12:30:28.011Z,101190.75
2022-12-25T12:33:54.496Z,101200.97
2022-12-25T12:37:24.786Z,101194.97
2022-12-25T12:40:39.237Z,101195.12
2022-12-25T12:43:54.971Z,101195.66
2022-12-25T12:46:57.967Z,101207.88
2022-12-25T12:50:01.784Z,101206.28
2022-12-25T12:53:15.892Z,101194.66
2022-12-25T12:56:20.285Z,101200.31
2022-12-25T12:59:23.878Z,101196.56
2022-12-25T13:02:51.380Z,101204.06
2022-12-25T13:06:17.112Z,101209.97
2022-12-25T13:09:36.396Z,101206.09
2022-12-25T13:12:38.638Z,101210.59
2022-12-25T13:15:46.780Z,101215.81
2022-12-25T13:18:51.830Z,101212.47
2022-12-25T13:22:00.409Z,101202.56
2022-12-25T13:25:05.839Z,101208.22
2022-12-25T13:28:14.352Z,101202.69
2022-12-25T13:31:22.574Z,101197.47
2022-12-25T13:34:31.692Z,101204.91
2022-12-25T13:37:35.131Z,101209.38
2022-12-25T13:40:37.805Z,101216.81
2022-12-25T13:43:42.303Z,101211.91
2022-12-25T13:46:45.160Z,101204.16
2022-12-25T13:49:49.386Z,101207.72
2022-12-25T13:52:53.637Z,101206.72
2022-12-25T13:55:58.560Z,101217.56
2022-12-25T13:59:01.112Z,101213.28
2022-12-25T14:02:04.223Z,101224.25
2022-12-25T14:05:30.671Z,101216.19
2022-12-25T14:08:36.028Z,101224.38
2022-12-25T14:11:41.131Z,101219.56
2022-12-25T14:14:43.753Z,101216.25
2022-12-25T14:17:46.810Z,101217.34
2022-12-25T14:20:59.935Z,101225.03
2022-12-25T14:24:02.569Z,101224.47
2022-12-25T14:27:18.150Z,101217.19
2022-12-25T14:30:29.122Z,101217.81
2022-12-25T14:33:38.258Z,101229.09
2022-12-25T14:36:41.018Z,101230.25
2022-12-25T14:39:47.529Z,101230.13
2022-12-25T14:43:01.724Z,101229.87
2022-12-25T14:46:06.641Z,101237.94
2022-12-25T14:49:23.823Z,101240.66
2022-12-25T14:52:43.646Z,101233.66
2022-12-25T14:55:49.513Z,101245.31
2022-12-25T14:58:55.044Z,101241.91
2022-12-25T15:02:01.227Z,101243.03
2022-12-25T15:05:03.643Z,101236.34
2022-12-25T15:08:10.209Z,101235.09
2022-12-25T15:11:12.436Z,101246.06
2022-12-25T15:14:14.970Z,101242.84
2022-12-25T15:17:26.501Z,101241.09
2022-12-25T15:20:32.517Z,101236.69
2022-12-25T15:23:34.696Z,101244.31
2022-12-25T15:26:37.326Z,101244.91
2022-12-25T15:30:08.590Z,101243.63
2022-12-25T15:33:01.994Z,101240.22
2022-12-25T15:36:04.622Z,101248.06
2022-12-25T15:39:07.662Z,101246.87
2022-12-25T15:42:15.374Z,101242.94
2022-12-25T15:45:25.368Z,101244.22
2022-12-25T15:48:27.577Z,101253.44
2022-12-25T15:51:30.515Z,101269.47
2022-12-25T15:54:33.295Z,101256.25
2022-12-25T15:57:38.016Z,101254.72
2022-12-25T16:00:40.198Z,101251.53
2022-12-25T16:03:44.039Z,101262.44
2022-12-25T16:06:46.334Z,101251.22
2022-12-25T16:09:49.264Z,101254.63
2022-12-25T16:12:51.606Z,101261.72
2022-12-25T16:15:54.085Z,101257.44
2022-12-25T16:18:56.285Z,101257.00
2022-12-25T16:21:58.767Z,101254.37
2022-12-25T16:25:00.999Z,101246.44
2022-12-25T16:28:03.683Z,101245.06
2022-12-25T16:31:06.131Z,101243.03
2022-12-25T16:34:09.434Z,101239.44
2022-12-25T16:37:12.431Z,101242.50
2022-12-25T16:40:14.954Z,101230.56
2022-12-25T16:43:23.611Z,101228.84
2022-12-25T16:46:26.781Z,101230.22
2022-12-25T16:49:29.038Z,101239.69
2022-12-25T16:52:33.113Z,101238.06
2022-12-25T16:55:37.622Z,101238.16
2022-12-25T16:58:40.623Z,101227.13
2022-12-25T17:01:43.468Z,101233.56
2022-12-25T17:04:46.564Z,101224.34
2022-12-25T17:07:48.812Z,101224.84
2022-12-25T17:10:51.307Z,101218.09
2022-12-25T17:13:54.027Z,101219.13
2022-12-25T17:16:56.506Z,101222.56
2022-12-25T17:19:58.798Z,101223.03
2022-12-25T17:23:01.355Z,101226.25
2022-12-25T17:26:04.730Z,101224.72
2022-12-25T17:29:07.958Z,101227.97
2022-12-25T17:32:11.456Z,101225.91
2022-12-25T17:35:14.045Z,101223.75
2022-12-25T17:38:16.233Z,101216.87
2022-12-25T17:41:20.075Z,101205.19
2022-12-25T17:44:22.458Z,101198.03
2022-12-25T17:47:25.008Z,101185.72
2022-12-25T17:50:27.199Z,101185.84
2022-12-25T17:53:29.720Z,101195.94
2022-12-25T17:56:32.947Z,101201.00
2022-12-25T17:59:35.463Z,101213.69
2022-12-25T18:02:37.985Z,101200.28
2022-12-25T18:05:40.661Z,101204.69
2022-12-25T18:08:43.934Z,101204.75
2022-12-25T18:11:46.378Z,101207.84
2022-12-25T18:14:48.413Z,101206.13
2022-12-25T18:17:50.862Z,101204.97
2022-12-25T18:20:53.536Z,101202.91
2022-12-25T18:23:56.475Z,101202.72
2022-12-25T18:26:58.664Z,101197.22
2022-12-25T18:30:01.191Z,101195.22
2022-12-25T18:33:03.549Z,101190.72
2022-12-25T18:36:06.404Z,101189.78
2022-12-25T18:39:08.624Z,101195.84
2022-12-25T18:42:30.113Z,101196.47
2022-12-25T18:45:32.635Z,101200.50
2022-12-25T18:48:35.927Z,101188.63
2022-12-25T18:51:37.957Z,101186.37
2022-12-25T18:54:40.395Z,101190.72
2022-12-25T18:57:42.618Z,101183.75
2022-12-25T19:00:45.413Z,101183.97
2022-12-25T19:03:49.362Z,101173.09
2022-12-25T19:06:52.155Z,101172.41
2022-12-25T19:09:54.364Z,101176.37
2022-12-25T19:12:56.874Z,101177.22
2022-12-25T19:15:59.456Z,101172.72
2022-12-25T19:19:02.783Z,101161.84
2022-12-25T19:22:05.635Z,101161.78
2022-12-25T19:25:08.625Z,101173.88
2022-12-25T19:28:10.795Z,101173.88
2022-12-25T19:31:13.470Z,101178.97
2022-12-25T19:34:16.015Z,101167.41
2022-12-25T19:37:18.465Z,101167.56
2022-12-25T19:40:20.675Z,101172.69
2022-12-25T19:43:23.506Z,101177.88
2022-12-25T19:46:28.209Z,101187.91
2022-12-25T19:49:30.831Z,101193.09
2022-12-25T19:52:33.121Z,101166.22
2022-12-25T19:55:35.567Z,101164.03
2022-12-25T19:58:37.903Z,101163.03
2022-12-25T20:01:41.855Z,101159.53
2022-12-25T20:04:44.342Z,101154.34
2022-12-25T20:07:46.533Z,101138.56
2022-12-25T20:10:49.391Z,101118.47
2022-12-25T20:13:52.113Z,101121.50
2022-12-25T20:16:54.678Z,101115.37
2022-12-25T20:19:56.891Z,101123.12
2022-12-25T20:22:59.371Z,101126.62
2022-12-25T20:26:04.348Z,101124.69
2022-12-25T20:29:07.429Z,101136.19
2022-12-25T20:32:09.977Z,101137.72
2022-12-25T20:35:16.039Z,101132.97
2022-12-25T20:38:18.239Z,101132.88
2022-12-25T20:41:27.387Z,101130.09
2022-12-25T20:44:29.944Z,101120.22
2022-12-25T20:47:32.465Z,101126.38
2022-12-25T20:50:35.011Z,101129.34
2022-12-25T20:53:37.916Z,101122.53
2022-12-25T20:56:40.442Z,101127.56
2022-12-25T20:59:43.375Z,101129.59
2022-12-25T21:02:45.762Z,101121.00
2022-12-25T21:05:53.889Z,101124.69
2022-12-25T21:08:56.401Z,101130.28
2022-12-25T21:11:59.093Z,101124.16
2022-12-25T21:15:01.386Z,101114.97
2022-12-25T21:18:03.896Z,101110.78
2022-12-25T21:21:07.568Z,101106.88
2022-12-25T21:24:10.753Z,101106.88
2022-12-25T21:27:13.027Z,101117.00
2022-12-25T21:30:16.095Z,101123.53
2022-12-25T21:33:37.221Z,101119.28
2022-12-25T21:36:41.268Z,101109.41
2022-12-25T21:39:43.412Z,101107.53
2022-12-25T21:42:45.831Z,101104.22
2022-12-25T21:45:48.042Z,101103.88
2022-12-25T21:48:50.965Z,101105.81
2022-12-25T21:52:08.390Z,101096.81
2022-12-25T21:55:10.999Z,101092.19
2022-12-25T21:58:13.216Z,101102.00
2022-12-25T22:01:16.871Z,101107.38
2022-12-25T22:04:20.899Z,101116.38
2022-12-25T22:07:22.973Z,101126.94
2022-12-25T22:10:25.526Z,101120.91
2022-12-25T22:13:47.270Z,101121.50
2022-12-25T22:17:08.297Z,101127.88
2022-12-25T22:20:23.900Z,101115.28
2022-12-25T22:23:26.371Z,101122.28
2022-12-25T22:26:28.562Z,101123.41
2022-12-25T22:29:30.984Z,101115.13
2022-12-25T22:32:34.638Z,101106.44
2022-12-25T22:35:37.159Z,101101.06
2022-12-25T22:38:41.940Z,101103.25
2022-12-25T22:41:44.405Z,101104.19
2022-12-25T22:44:46.585Z,101108.56
2022-12-25T22:47:49.550Z,101108.34
2022-12-25T22:50:51.751Z,101107.66
2022-12-25T22:53:57.412Z,101130.16
2022-12-25T22:57:02.507Z,101116.84
2022-12-25T23:00:08.764Z,101102.03
2022-12-25T23:03:11.171Z,101099.22
2022-12-25T23:06:13.956Z,101098.72
2022-12-25T23:09:24.210Z,101085.47
2022-12-25T23:12:45.833Z,101087.06
2022-12-25T23:15:48.150Z,101092.91
2022-12-25T23:19:09.728Z,101091.03
2022-12-25T23:22:31.406Z,101100.75
2022-12-25T23:25:53.880Z,101097.69
2022-12-25T23:29:14.933Z,101102.78
2022-12-25T23:32:28.126Z,101098.03
2022-12-25T23:35:30.363Z,101095.28
2022-12-25T23:38:32.867Z,101087.69
2022-12-25T23:41:35.056Z,101082.06
2022-12-25T23:44:37.573Z,101074.03
2022-12-25T23:47:39.910Z,101077.22
2022-12-25T23:50:42.569Z,101073.81
2022-12-25T23:53:45.106Z,101075.09
2022-12-25T23:56:47.951Z,101060.59
2022-12-25T23:59:50.136Z,101069.38
